• Join FlightAware (Why Join?)
  • Login
  • US Flag 
07:38AM EDT


 

Airport Tracker/Info


-or-


 

Live Flight TrackerFlight Track Log ✈ WBR2634 ✈ 11-Jun-2013 ✈ KBRL - KORD

Flight Track Log - Related Links

Times and Time Zones

All times are in EDT time to prevent confusion due to time zone crossing. See the WBR2634 flight status page for this flight to view local times or setup timezone preferences in your user account.

Time Position Orientation Groundspeed Altitude Reporting Facility
EDT Latitude Longitude Course Direction KTS MPH feet Rate Location/Type
05:56PM 40.8328 -91.1267 75° East 116 133 2,500  Level Chicago Center
05:57PM 40.8650 -90.7700 57° Northeast  Level FlightAware Approximate
05:57PM 40.8358 -91.0700 86° East 131 151 3,400  Level Chicago Center
05:58PM 40.8765 -90.7108 72° East  Level FlightAware Approximate
05:58PM 40.8525 -91.0228 65° Northeast 136 157 4,200  Level Chicago Center
05:59PM 40.8987 -90.6568 63° Northeast  Level Estimated
05:59PM 40.8681 -90.9747 67° East 141 162 5,000  Level Chicago Center
06:00PM 40.9112 -90.5976 74° East  Level FlightAware Approximate
06:00PM 40.8842 -90.9225 68° East 149 171 5,700  Level Chicago Center
06:01PM 40.9235 -90.5384 75° East  Level FlightAware Approximate
06:01PM 40.9025 -90.8689 66° East 157 181 6,300  Level Chicago Center
06:02PM 40.9228 -90.8183 62° Northeast 155 178 7,000 660 Climbing Chicago Center
06:03PM 40.9458 -90.7503 66° East 166 191 7,700 600 Climbing Chicago Center
06:04PM 40.9639 -90.6931 67° East 169 194 8,300 540 Climbing Chicago Center
06:05PM 40.9819 -90.6389 66° East 162 186 8,900 300 Climbing Chicago Center
06:06PM 41.0042 -90.5792 64° Northeast 178 205 9,000  Climbing Chicago Center
06:07PM 41.0264 -90.5156 65° Northeast 189 217 9,000  Level Chicago Center
06:08PM 41.0475 -90.4481 67° East 197 227 9,000  Level Chicago Center
06:09PM 41.0703 -90.3822 65° Northeast 197 227 9,000 -60 Level Chicago Center
06:10PM 41.0975 -90.3008 66° East 200 230 8,900  Descending Chicago Center
06:11PM 41.1181 -90.2369 67° East 193 222 9,000  Climbing Chicago Center
06:12PM 41.1372 -90.1719 69° East 191 220 9,000  Level Chicago Center
06:13PM 41.1583 -90.1067 67° East 191 220 9,000  Level Chicago Center
06:15PM 41.1794 -90.0433 66° East 189 217 9,000  Level Chicago Center
06:16PM 41.2000 -89.9789 67° East 188 216 9,000 -60 Level Chicago Center
06:17PM 41.2247 -89.9014 67° East 189 217 8,900  Descending Chicago Center
06:18PM 41.2456 -89.8394 66° East 185 213 9,000  Climbing Chicago Center
06:19PM 41.2667 -89.7764 66° East 185 213 9,000  Level Chicago Center
06:20PM 41.2867 -89.7136 67° East 185 213 9,000  Level Chicago Center
06:21PM 41.3061 -89.6494 68° East 186 214 9,000  Level Chicago Center
06:22PM 41.3256 -89.5856 68° East 185 213 9,000  Level Chicago Center
06:23PM 41.3433 -89.5222 69° East 184 212 9,000  Level Chicago Center
06:24PM 41.3672 -89.4472 67° East 183 211 9,000  Level Chicago Center
06:25PM 41.3869 -89.3842 67° East 184 212 9,000  Level Chicago Center
06:26PM 41.4064 -89.3250 66° East 178 205 9,000  Level Chicago Center
06:27PM 41.4258 -89.2653 67° East 176 203 9,000  Level Chicago Center
06:28PM 41.4464 -89.1931 69° East 184 212 9,000  Level Chicago Center
06:29PM 41.4661 -89.1314 67° East 183 211 9,000  Level Chicago Center
06:30PM 41.4861 -89.0678 67° East 186 214 9,000 -120 Level Chicago Center
06:31PM 41.5036 -89.0028 70° East 186 214 8,800 -120 Descending Chicago Center
06:32PM 41.5239 -88.9244 71° East 188 216 8,800 -300 Level Chicago Center
06:33PM 41.5389 -88.8578 73° East 188 216 8,200 -420 Descending Chicago Center
06:34PM 41.5583 -88.7978 67° East 179 206 8,000 -120 Descending Chicago Center
06:35PM 41.5769 -88.7394 67° East 174 200 8,000  Level Chicago Center
06:36PM 41.5947 -88.6817 68° East 169 194 8,000 -60 Level Chicago Center
06:37PM 41.6144 -88.6108 70° East 169 194 7,900  Descending Chicago Center
06:38PM 41.6181 -88.5489 86° East 169 194 8,000  Climbing Chicago Center
06:39PM 41.6203 -88.4847 87° East 175 201 8,000  Level Chicago Center
06:40PM 41.6400 -88.4303 64° Northeast 167 192 8,000  Level Chicago Center
06:41PM 41.6681 -88.3828 52° Northeast 163 188 8,000 -240 Level Chicago Center
06:42PM 41.6992 -88.3394 46° Northeast 163 188 7,600 -540 Descending Chicago Center
06:44PM 41.7331 -88.2792 53° Northeast 169 194 7,000 -300 Descending Chicago Center
06:45PM 41.7586 -88.2297 55° Northeast 165 190 7,000  Level Chicago Center
06:46PM 41.7839 -88.1811 55° Northeast 160 184 7,000  Level Chicago Center
06:47PM 41.8081 -88.1303 57° Northeast 162 186 7,000 -60 Level Chicago Center
06:48PM 41.8333 -88.0828 54° Northeast 159 183 6,900  Descending Chicago Center
06:49PM 41.8644 -88.0231 55° Northeast 162 186 7,000 60 Climbing Chicago Center
06:49PM 41.8833 -88.0000 42° Northeast 160 184 7,000  Level Chicago TRACON
06:50PM 41.8833 -87.9333 90° East 175 201 7,000  Level Chicago TRACON
06:51PM 41.8833 -87.8667 90° East 174 200 7,000  Level Chicago TRACON
06:52PM 41.8864 -87.8447 79° East 173 199 7,000 -420 Level Chicago Center
06:53PM 41.8881 -87.7806 88° East 174 200 6,400 -780 Descending Chicago Center
06:54PM 41.9111 -87.7328 57° Northeast 172 198 5,500 -1,140 Descending Chicago Center
06:55PM 41.9544 -87.7578 337° Northwest 163 188 4,100 -1,260 Descending Chicago Center
06:56PM 41.9678 -87.8036 291° West 146 168 2,900 -1,260 Descending Chicago Center
06:57PM 41.9678 -87.8517 270° West 140 161 1,500 -1,020 Descending Chicago Center
06:58PM 41.9714 -87.9067 275° West 135 155 900 -600 Descending Chicago Center